createdAt,value
2022-12-29T00:02:22.518Z,97745.66
2022-12-29T00:04:53.148Z,97817.63
2022-12-29T00:07:23.319Z,97820.97
2022-12-29T00:09:52.088Z,97810.44
2022-12-29T00:12:21.707Z,97771.50
2022-12-29T00:15:07.736Z,97826.09
2022-12-29T00:17:36.735Z,97807.84
2022-12-29T00:20:22.647Z,97829.66
2022-12-29T00:23:10.519Z,97763.78
2022-12-29T00:25:56.887Z,97787.41
2022-12-29T00:28:42.897Z,97820.34
2022-12-29T00:31:32.167Z,97811.75
2022-12-29T00:34:18.947Z,97817.75
2022-12-29T00:36:48.547Z,97806.47
2022-12-29T00:39:38.228Z,97798.63
2022-12-29T00:42:24.897Z,97800.38
2022-12-29T00:44:53.866Z,97866.09
2022-12-29T00:47:23.137Z,97798.66
2022-12-29T00:49:50.718Z,97750.06
2022-12-29T00:52:19.547Z,97771.50
2022-12-29T00:54:50.478Z,97792.31
2022-12-29T00:57:19.277Z,97789.72
2022-12-29T00:59:47.988Z,97674.34
2022-12-29T01:02:16.920Z,97629.31
2022-12-29T01:04:45.706Z,97798.13
2022-12-29T01:07:14.838Z,97806.84
2022-12-29T01:10:01.745Z,97591.22
2022-12-29T01:12:46.377Z,97808.44
2022-12-29T01:15:16.771Z,97799.84
2022-12-29T01:17:45.428Z,97803.91
2022-12-29T01:20:14.597Z,97659.31
2022-12-29T01:22:43.765Z,97806.59
2022-12-29T01:25:12.471Z,97804.03
2022-12-29T01:27:43.505Z,97761.50
2022-12-29T01:30:13.437Z,97807.66
2022-12-29T01:32:43.496Z,97796.53
2022-12-29T01:35:12.906Z,97800.53
2022-12-29T01:37:41.708Z,97761.75
2022-12-29T01:40:12.299Z,97619.19
2022-12-29T01:42:42.979Z,97807.44
2022-12-29T01:45:14.444Z,97757.16
2022-12-29T01:47:47.119Z,97790.09
2022-12-29T01:50:20.427Z,97783.06
2022-12-29T01:52:57.769Z,97747.69
2022-12-29T01:55:28.409Z,97789.44
2022-12-29T01:58:03.111Z,97748.34
2022-12-29T02:00:31.890Z,97786.50
2022-12-29T02:03:02.157Z,97801.56
2022-12-29T02:05:35.928Z,97618.69
2022-12-29T02:08:05.728Z,97769.59
2022-12-29T02:10:37.799Z,97695.09
2022-12-29T02:13:09.711Z,97606.03
2022-12-29T02:15:52.411Z,97755.41
2022-12-29T02:18:35.585Z,97753.88
2022-12-29T02:21:44.233Z,97762.13
2022-12-29T02:24:58.106Z,97752.28
2022-12-29T02:27:53.581Z,97765.25
2022-12-29T02:30:43.740Z,97751.47
2022-12-29T02:33:23.976Z,97754.78
2022-12-29T02:36:03.657Z,97739.97
2022-12-29T02:38:48.538Z,97713.94
2022-12-29T02:41:24.045Z,97740.31
2022-12-29T02:43:58.030Z,97722.13
2022-12-29T02:46:39.474Z,97741.44
2022-12-29T02:49:15.422Z,97746.47
2022-12-29T02:51:55.747Z,97742.94
2022-12-29T02:54:43.536Z,97743.00
2022-12-29T02:57:14.165Z,97734.34
2022-12-29T02:59:45.430Z,97709.00
2022-12-29T03:02:36.884Z,97722.09
2022-12-29T03:05:25.196Z,97753.19
2022-12-29T03:08:05.678Z,97743.78
2022-12-29T03:10:45.945Z,97739.53
2022-12-29T03:13:41.968Z,97736.44
2022-12-29T03:16:20.008Z,97748.31
2022-12-29T03:18:58.485Z,97737.88
2022-12-29T03:21:48.501Z,97735.13
2022-12-29T03:24:18.878Z,97723.94
2022-12-29T03:26:49.387Z,97682.47
2022-12-29T03:29:21.175Z,97695.53
2022-12-29T03:31:51.066Z,97726.63
2022-12-29T03:34:23.215Z,97718.09
2022-12-29T03:36:56.498Z,97580.34
2022-12-29T03:39:26.840Z,97654.94
2022-12-29T03:42:02.466Z,97706.59
2022-12-29T03:44:35.923Z,97676.22
2022-12-29T03:47:05.375Z,97736.91
2022-12-29T03:49:35.924Z,97735.88
2022-12-29T03:52:05.428Z,97753.00
2022-12-29T03:54:34.503Z,97704.75
2022-12-29T03:57:03.146Z,97704.56
2022-12-29T03:59:31.971Z,97727.16
2022-12-29T04:02:00.966Z,97728.97
2022-12-29T04:04:29.800Z,97679.19
2022-12-29T04:06:59.886Z,97719.09
2022-12-29T04:09:28.666Z,97733.84
2022-12-29T04:11:57.232Z,97656.66
2022-12-29T04:14:25.976Z,97739.78
2022-12-29T04:16:54.744Z,97741.47
2022-12-29T04:19:23.759Z,97745.03
2022-12-29T04:21:52.406Z,97711.56
2022-12-29T04:24:22.696Z,97739.22
2022-12-29T04:26:51.697Z,97731.38
2022-12-29T04:29:21.495Z,97682.09
2022-12-29T04:31:50.395Z,97684.53
2022-12-29T04:34:19.497Z,97632.78
2022-12-29T04:36:48.583Z,97465.66
2022-12-29T04:39:17.275Z,97714.19
2022-12-29T04:41:48.438Z,97650.03
2022-12-29T04:44:17.738Z,97723.75
2022-12-29T04:46:47.065Z,97731.66
2022-12-29T04:49:16.645Z,97732.28
2022-12-29T04:51:47.709Z,97660.44
2022-12-29T04:54:16.356Z,97718.53
2022-12-29T04:56:44.956Z,97722.88
2022-12-29T04:59:15.237Z,97726.44
2022-12-29T05:01:44.545Z,97724.59
2022-12-29T05:04:13.275Z,97701.16
2022-12-29T05:06:43.007Z,97714.19
2022-12-29T05:09:11.896Z,97548.50
2022-12-29T05:11:40.619Z,97712.91
2022-12-29T05:14:09.318Z,97585.31
2022-12-29T05:16:39.496Z,97750.88
2022-12-29T05:19:08.550Z,97742.28
2022-12-29T05:21:37.289Z,97733.72
2022-12-29T05:24:06.683Z,97722.34
2022-12-29T05:26:35.400Z,97627.84
2022-12-29T05:29:04.765Z,97683.28
2022-12-29T05:31:33.619Z,97703.06
2022-12-29T05:34:04.147Z,97684.66
2022-12-29T05:36:37.782Z,97741.47
2022-12-29T05:39:09.133Z,97642.56
2022-12-29T05:41:38.189Z,97729.47
2022-12-29T05:44:07.063Z,97707.69
2022-12-29T05:46:35.952Z,97717.25
2022-12-29T05:49:06.281Z,97736.28
2022-12-29T05:51:35.238Z,97694.53
2022-12-29T05:54:03.889Z,97729.88
2022-12-29T05:56:32.758Z,97766.88
2022-12-29T05:59:02.477Z,97759.22
2022-12-29T06:01:31.389Z,97747.41
2022-12-29T06:04:00.286Z,97757.81
2022-12-29T06:06:30.736Z,97714.47
2022-12-29T06:08:59.670Z,97764.44
2022-12-29T06:11:28.391Z,97737.25
2022-12-29T06:13:57.110Z,97613.09
2022-12-29T06:16:26.024Z,97762.09
2022-12-29T06:18:54.910Z,97766.31
2022-12-29T06:21:23.517Z,97627.72
2022-12-29T06:23:53.724Z,97755.47
2022-12-29T06:26:22.687Z,97759.78
2022-12-29T06:28:51.358Z,97728.53
2022-12-29T06:31:20.657Z,97736.72
2022-12-29T06:33:50.182Z,97726.13
2022-12-29T06:36:19.667Z,97756.31
2022-12-29T06:38:48.934Z,97654.84
2022-12-29T06:41:19.207Z,97765.78
2022-12-29T06:43:47.946Z,97738.84
2022-12-29T06:46:16.862Z,97565.63
2022-12-29T06:48:46.070Z,97758.78
2022-12-29T06:51:14.858Z,97772.78
2022-12-29T06:53:43.907Z,97741.50
2022-12-29T06:56:12.738Z,97746.03
2022-12-29T06:58:43.018Z,97772.84
2022-12-29T07:01:11.695Z,97662.69
2022-12-29T07:03:40.519Z,97765.00
2022-12-29T07:06:09.693Z,97785.88
2022-12-29T07:08:38.396Z,97766.00
2022-12-29T07:11:07.942Z,97780.78
2022-12-29T07:13:36.957Z,97783.59
2022-12-29T07:16:10.536Z,97782.09
2022-12-29T07:18:39.506Z,97772.69
2022-12-29T07:21:08.314Z,97760.59
2022-12-29T07:23:37.178Z,97763.25
2022-12-29T07:26:08.069Z,97750.50
2022-12-29T07:28:39.300Z,97737.03
2022-12-29T07:31:15.729Z,97683.34
2022-12-29T07:33:44.548Z,97779.03
2022-12-29T07:36:13.677Z,97742.66
2022-12-29T07:38:42.670Z,97802.31
2022-12-29T07:41:11.610Z,97797.25
2022-12-29T07:43:40.421Z,97766.97
2022-12-29T07:46:19.026Z,97786.88
2022-12-29T07:49:00.282Z,97602.97
2022-12-29T07:51:29.008Z,97786.75
2022-12-29T07:53:57.738Z,97799.53
2022-12-29T07:56:26.337Z,97803.19
2022-12-29T07:58:55.004Z,97807.66
2022-12-29T08:01:25.714Z,97801.84
2022-12-29T08:03:57.561Z,97783.28
2022-12-29T08:06:26.520Z,97690.75
2022-12-29T08:08:59.716Z,97794.88
2022-12-29T08:11:30.467Z,97790.75
2022-12-29T08:13:59.248Z,97796.06
2022-12-29T08:16:29.506Z,97788.34
2022-12-29T08:18:59.281Z,97796.44
2022-12-29T08:21:29.490Z,97793.25
2022-12-29T08:23:58.575Z,97741.41
2022-12-29T08:26:27.300Z,97612.44
2022-12-29T08:28:56.982Z,97767.38
2022-12-29T08:31:25.681Z,97794.25
2022-12-29T08:33:56.018Z,97793.53
2022-12-29T08:36:24.769Z,97774.59
2022-12-29T08:38:53.546Z,97788.50
2022-12-29T08:41:22.219Z,97792.84
2022-12-29T08:43:52.649Z,97792.16
2022-12-29T08:46:21.336Z,97790.53
2022-12-29T08:48:50.089Z,97723.00
2022-12-29T08:51:24.648Z,97784.66
2022-12-29T08:53:54.348Z,97752.75
2022-12-29T08:56:25.497Z,97794.34
2022-12-29T08:58:54.646Z,97795.19
2022-12-29T09:01:23.723Z,97772.66
2022-12-29T09:06:43.076Z,97767.53
2022-12-29T09:09:12.381Z,97769.22
2022-12-29T09:11:41.565Z,97735.50
2022-12-29T09:14:10.348Z,97785.66
2022-12-29T09:16:39.652Z,97800.50
2022-12-29T09:19:08.557Z,97778.13
2022-12-29T09:21:37.146Z,97804.19
2022-12-29T09:24:07.718Z,97808.59
2022-12-29T09:26:38.459Z,97795.75
2022-12-29T09:29:10.521Z,97797.50
2022-12-29T09:31:39.602Z,97788.09
2022-12-29T09:34:08.315Z,97772.59
2022-12-29T09:36:36.936Z,97758.78
2022-12-29T09:39:07.214Z,97747.63
2022-12-29T09:41:42.425Z,97764.91
2022-12-29T09:44:20.176Z,97782.22
2022-12-29T09:46:52.664Z,97750.22
2022-12-29T09:49:31.059Z,97736.44
2022-12-29T09:52:05.282Z,97743.41
2022-12-29T09:54:51.504Z,97582.72
2022-12-29T09:57:27.829Z,97739.13
2022-12-29T10:00:02.278Z,97712.31
2022-12-29T10:02:36.460Z,97585.38
2022-12-29T10:05:05.560Z,97730.44
2022-12-29T10:07:45.112Z,97701.94
2022-12-29T10:10:25.768Z,97739.94
2022-12-29T10:13:03.515Z,97624.22
2022-12-29T10:15:44.307Z,97424.94
2022-12-29T10:18:26.612Z,97630.25
2022-12-29T10:21:00.507Z,97714.84
2022-12-29T10:23:33.996Z,97738.13
2022-12-29T10:26:06.272Z,97719.91
2022-12-29T10:28:40.336Z,97721.56
2022-12-29T10:31:16.989Z,97666.28
2022-12-29T10:33:46.229Z,97715.38
2022-12-29T10:36:20.394Z,97722.22
2022-12-29T10:38:59.667Z,97727.38
2022-12-29T10:41:35.405Z,97723.78
2022-12-29T10:44:04.028Z,97712.41
2022-12-29T10:46:38.417Z,97713.16
2022-12-29T10:49:08.657Z,97673.34
2022-12-29T10:51:42.607Z,97630.09
2022-12-29T10:54:17.935Z,97697.28
2022-12-29T10:56:53.319Z,97670.44
2022-12-29T10:59:25.357Z,97722.97
2022-12-29T11:02:03.052Z,97589.28
2022-12-29T11:04:47.581Z,97702.88
2022-12-29T11:07:25.102Z,97694.13
2022-12-29T11:09:55.906Z,97706.84
2022-12-29T11:12:29.187Z,97703.22
2022-12-29T11:15:13.607Z,97661.47
2022-12-29T11:17:51.386Z,97660.34
2022-12-29T11:20:36.226Z,97690.22
2022-12-29T11:23:06.132Z,97681.31
2022-12-29T11:25:34.948Z,97683.66
2022-12-29T11:28:16.503Z,97626.50
2022-12-29T11:30:46.105Z,97678.59
2022-12-29T11:33:14.876Z,97574.94
2022-12-29T11:35:45.785Z,97598.13
2022-12-29T11:38:23.255Z,97646.75
2022-12-29T11:40:52.916Z,97669.50
2022-12-29T11:43:31.346Z,97684.88
2022-12-29T11:46:01.239Z,97678.53
2022-12-29T11:48:34.096Z,97655.13
2022-12-29T11:51:03.049Z,97677.50
2022-12-29T11:53:41.082Z,97670.19
2022-12-29T11:56:15.033Z,97664.72
2022-12-29T11:58:45.315Z,97669.50
2022-12-29T12:01:19.725Z,97645.97
2022-12-29T12:03:55.551Z,97660.94
2022-12-29T12:06:27.686Z,97661.56
2022-12-29T12:09:00.040Z,97657.78
2022-12-29T12:11:38.106Z,97630.00
2022-12-29T12:14:18.188Z,97650.81
2022-12-29T12:16:53.227Z,97639.81
2022-12-29T12:19:34.157Z,97637.69
2022-12-29T12:22:11.301Z,97549.72
2022-12-29T12:24:45.298Z,97623.19
2022-12-29T12:27:19.128Z,97632.97
2022-12-29T12:29:55.208Z,97632.50
2022-12-29T12:32:29.726Z,97613.38
2022-12-29T12:34:58.817Z,97623.69
2022-12-29T12:37:45.405Z,97620.22
2022-12-29T12:40:43.545Z,97614.56
2022-12-29T12:43:36.315Z,97615.59
2022-12-29T12:46:18.395Z,97612.34
2022-12-29T12:49:14.428Z,97508.16
2022-12-29T12:51:54.198Z,97602.19
2022-12-29T12:54:45.996Z,97623.94
2022-12-29T12:57:23.189Z,97602.81
2022-12-29T12:59:59.909Z,97611.75
2022-12-29T13:02:42.138Z,97618.22
2022-12-29T13:05:34.664Z,97614.72
2022-12-29T13:08:35.517Z,97613.53
2022-12-29T13:11:14.748Z,97605.22
2022-12-29T13:13:52.151Z,97596.81
2022-12-29T13:16:31.768Z,97588.72
2022-12-29T13:19:09.185Z,97583.31
2022-12-29T13:22:00.043Z,97573.44
2022-12-29T13:24:38.927Z,97578.75
2022-12-29T13:27:17.918Z,97587.94
2022-12-29T13:29:56.786Z,97576.16
2022-12-29T13:32:36.836Z,97488.31
2022-12-29T13:35:21.302Z,97582.44
2022-12-29T13:37:56.065Z,97582.03
2022-12-29T13:40:27.522Z,97568.63
2022-12-29T13:42:59.179Z,97570.84
2022-12-29T13:45:32.227Z,97585.00
2022-12-29T13:48:07.608Z,97579.53
2022-12-29T13:50:41.053Z,97583.44
2022-12-29T13:53:20.878Z,97584.97
2022-12-29T13:55:56.927Z,97577.16
2022-12-29T13:58:34.004Z,97494.50
2022-12-29T14:01:11.906Z,97593.53
2022-12-29T14:03:51.693Z,97604.59
2022-12-29T14:06:26.854Z,97609.25
2022-12-29T14:08:58.193Z,97607.44
2022-12-29T14:11:34.022Z,97614.50
2022-12-29T14:14:14.362Z,97607.06
2022-12-29T14:16:44.161Z,97615.81
2022-12-29T14:19:17.804Z,97600.72
2022-12-29T14:21:57.158Z,97602.06
2022-12-29T14:24:47.696Z,97563.31
2022-12-29T14:27:55.859Z,97612.13
2022-12-29T14:30:50.606Z,97608.31
2022-12-29T14:33:20.460Z,97593.13
2022-12-29T14:35:54.936Z,97617.28
2022-12-29T14:38:34.087Z,97612.91
2022-12-29T14:41:29.131Z,97619.53
2022-12-29T14:44:03.547Z,97615.31
2022-12-29T14:46:58.021Z,97613.97
2022-12-29T14:49:29.897Z,97482.47
2022-12-29T14:52:09.966Z,97622.97
2022-12-29T14:54:55.286Z,97623.16
2022-12-29T14:57:38.404Z,97624.19
2022-12-29T15:00:21.576Z,97628.66
2022-12-29T15:02:56.416Z,97627.94
2022-12-29T15:05:34.762Z,97558.28
2022-12-29T15:08:05.726Z,97636.78
2022-12-29T15:10:41.097Z,97632.53
2022-12-29T15:13:17.665Z,97625.69
2022-12-29T15:15:46.227Z,97633.59
2022-12-29T15:18:24.769Z,97627.56
2022-12-29T15:20:56.568Z,97644.03
2022-12-29T15:23:33.768Z,97637.19
2022-12-29T15:26:05.955Z,97645.91
2022-12-29T15:28:41.194Z,97644.25
2022-12-29T15:31:14.969Z,97647.78
2022-12-29T15:33:45.234Z,97625.41
2022-12-29T15:36:17.326Z,97634.97
2022-12-29T15:38:46.005Z,97629.81
2022-12-29T15:41:28.503Z,97528.97
2022-12-29T15:44:10.540Z,97646.22
2022-12-29T15:46:39.808Z,97598.88
2022-12-29T15:49:09.777Z,97644.66
2022-12-29T15:51:41.439Z,97643.81
2022-12-29T15:54:20.155Z,97642.94
2022-12-29T15:56:51.215Z,97643.84
2022-12-29T15:59:30.991Z,97642.09
2022-12-29T16:02:05.901Z,97647.31
2022-12-29T16:05:01.012Z,97643.03
2022-12-29T16:07:29.499Z,97646.50
2022-12-29T16:09:59.600Z,97652.56
2022-12-29T16:12:35.027Z,97625.78
2022-12-29T16:15:05.652Z,97494.72
2022-12-29T16:17:49.048Z,97505.97
2022-12-29T16:20:20.606Z,97648.25
2022-12-29T16:22:53.496Z,97649.19
2022-12-29T16:25:25.704Z,97657.84
2022-12-29T16:27:56.209Z,97664.75
2022-12-29T16:30:33.242Z,97671.69
2022-12-29T16:33:04.076Z,97660.44
2022-12-29T16:35:42.267Z,97657.00
2022-12-29T16:38:17.542Z,97657.03
2022-12-29T16:40:53.652Z,97569.84
2022-12-29T16:43:25.905Z,97665.66
2022-12-29T16:46:23.973Z,97659.63
2022-12-29T16:48:55.919Z,97654.44
2022-12-29T16:51:32.687Z,97639.78
2022-12-29T16:54:02.511Z,97673.47
2022-12-29T16:56:34.607Z,97665.69
2022-12-29T16:59:08.438Z,97655.31
2022-12-29T17:01:39.726Z,97662.22
2022-12-29T17:04:11.488Z,97661.34
2022-12-29T17:06:40.612Z,97660.47
2022-12-29T17:09:20.376Z,97657.91
2022-12-29T17:12:01.696Z,97624.22
2022-12-29T17:14:39.206Z,97617.31
2022-12-29T17:17:13.797Z,97659.66
2022-12-29T17:19:47.074Z,97652.72
2022-12-29T17:22:19.305Z,97653.59
2022-12-29T17:24:48.081Z,97652.72
2022-12-29T17:27:43.098Z,97648.38
2022-12-29T17:30:17.650Z,97631.13
2022-12-29T17:32:51.338Z,97554.28
2022-12-29T17:35:22.530Z,97657.88
2022-12-29T17:37:51.805Z,97625.94
2022-12-29T17:40:23.727Z,97629.41
2022-12-29T17:42:55.352Z,97700.03
2022-12-29T17:45:27.609Z,97642.34
2022-12-29T17:47:56.425Z,97642.34
2022-12-29T17:50:27.280Z,97654.44
2022-12-29T17:53:01.005Z,97650.09
2022-12-29T17:55:37.273Z,97484.34
2022-12-29T17:58:18.273Z,97657.03
2022-12-29T18:00:49.991Z,97656.16
2022-12-29T18:03:20.423Z,97637.09
2022-12-29T18:05:50.141Z,97650.94
2022-12-29T18:08:18.896Z,97612.03
2022-12-29T18:10:47.953Z,97637.97
2022-12-29T18:13:23.001Z,97654.41
2022-12-29T18:15:54.077Z,97595.66
2022-12-29T18:18:25.087Z,97651.78
2022-12-29T18:20:56.871Z,97636.25
2022-12-29T18:23:27.708Z,97534.38
2022-12-29T18:26:00.982Z,97659.56
2022-12-29T18:28:30.446Z,97606.06
2022-12-29T18:31:02.440Z,97657.84
2022-12-29T18:33:31.961Z,97645.75
2022-12-29T18:36:02.676Z,97650.94
2022-12-29T18:38:31.759Z,97662.06
2022-12-29T18:41:01.538Z,97660.34
2022-12-29T18:43:30.100Z,97653.47
2022-12-29T18:46:00.141Z,97653.44
2022-12-29T18:48:29.578Z,97654.28
2022-12-29T18:51:00.135Z,97654.31
2022-12-29T18:53:28.967Z,97652.56
2022-12-29T18:55:58.376Z,97457.41
2022-12-29T18:58:33.940Z,97641.38
2022-12-29T19:01:05.773Z,97634.50
2022-12-29T19:03:34.937Z,97623.25
2022-12-29T19:06:03.818Z,97638.78
2022-12-29T19:08:32.528Z,97625.81
2022-12-29T19:11:01.593Z,97638.78
2022-12-29T19:13:30.242Z,97635.34
2022-12-29T19:16:00.260Z,97638.78
2022-12-29T19:18:53.254Z,97640.50
2022-12-29T19:21:20.251Z,97643.94
2022-12-29T19:23:48.928Z,97642.19
2022-12-29T19:26:30.819Z,97638.72
2022-12-29T19:29:01.254Z,97639.59
2022-12-29T19:31:30.402Z,97624.88
2022-12-29T19:34:01.947Z,97641.28
2022-12-29T19:36:31.505Z,97632.69
2022-12-29T19:39:00.328Z,97636.19
2022-12-29T19:41:28.961Z,97626.72
2022-12-29T19:43:57.728Z,97637.03
2022-12-29T19:46:27.051Z,97610.28
2022-12-29T19:48:58.996Z,97605.94
2022-12-29T19:51:29.933Z,97627.56
2022-12-29T19:53:59.678Z,97626.69
2022-12-29T19:56:28.319Z,97600.75
2022-12-29T19:58:57.794Z,97610.31
2022-12-29T20:01:28.023Z,97612.91
2022-12-29T20:03:58.497Z,97600.78
2022-12-29T20:06:28.899Z,97548.88
2022-12-29T20:08:58.129Z,97618.88
2022-12-29T20:11:27.105Z,97624.88
2022-12-29T20:13:56.285Z,97617.97
2022-12-29T20:16:25.217Z,97617.97
2022-12-29T20:18:56.118Z,97607.56
2022-12-29T20:21:26.600Z,97623.09
2022-12-29T23:01:25.365Z,97577.13
2022-12-29T23:10:48.028Z,97559.75
2022-12-29T23:13:40.295Z,97557.22
2022-12-29T23:16:33.088Z,97557.31
2022-12-29T23:19:25.098Z,97560.72
2022-12-29T23:22:16.882Z,97569.28
2022-12-29T23:28:02.042Z,97557.28
2022-12-29T23:30:30.170Z,97568.50
2022-12-29T23:32:58.296Z,97539.97
2022-12-29T23:38:19.813Z,97525.25
2022-12-29T23:40:49.406Z,97498.56
2022-12-29T23:43:17.967Z,97549.47
2022-12-29T23:47:00.413Z,97540.03
2022-12-29T23:50:42.242Z,97542.63
2022-12-29T23:54:50.273Z,97533.91
2022-12-29T23:58:33.119Z,97533.88
